Time;durP1;ratioP1;P1;durP2;ratioP2;P2;SDS_P1;SDS_P2;PMS_P1;PMS_P2;Temp;Humidity;BMP_temperature;BMP_pressure;BME280_temperature;BME280_humidity;BME280_pressure;Samples;Min_cycle;Max_cycle;Signal;HPM_P1;HPM_P2
2023/01/10 00:00:08;;;;;;;3.30;1.48;;;8.30;80.80;;;;;;5090082;28;20035;-60
2023/01/10 00:02:36;;;;;;;2.20;1.02;;;8.30;80.90;;;;;;5083579;28;20036;-59
2023/01/10 00:05:02;;;;;;;7.88;1.20;;;8.20;80.80;;;;;;5098020;28;20031;-59
2023/01/10 00:07:27;;;;;;;2.10;1.25;;;8.20;81.00;;;;;;5091612;28;20055;-59
2023/01/10 00:09:53;;;;;;;3.47;1.48;;;8.20;81.10;;;;;;5083679;28;20051;-59
2023/01/10 00:15:03;;;;;;;2.75;1.30;;;8.10;81.10;;;;;;5107796;28;20570;-60
2023/01/10 00:17:29;;;;;;;3.13;1.42;;;8.10;81.00;;;;;;5103885;28;20039;-64
2023/01/10 00:19:55;;;;;;;3.08;1.48;;;8.10;81.10;;;;;;5110974;28;20367;-64
2023/01/10 00:22:23;;;;;;;3.20;1.73;;;8.00;81.10;;;;;;5105153;28;20060;-65
2023/01/10 00:24:50;;;;;;;6.82;1.75;;;8.00;81.10;;;;;;5091606;28;20036;-65
2023/01/10 00:27:21;;;;;;;2.17;1.27;;;8.00;81.30;;;;;;5091137;28;20029;-65
2023/01/10 00:29:50;;;;;;;4.38;1.27;;;8.00;81.30;;;;;;5110744;28;20039;-63
2023/01/10 00:32:15;;;;;;;2.22;1.45;;;8.00;81.20;;;;;;5083720;28;20116;-63
2023/01/10 00:34:41;;;;;;;5.80;1.83;;;8.00;81.10;;;;;;5110914;28;20441;-63
2023/01/10 00:37:07;;;;;;;4.07;1.55;;;8.10;81.00;;;;;;5109993;28;20028;-64
2023/01/10 00:39:32;;;;;;;2.97;1.58;;;8.00;80.90;;;;;;5109014;28;20024;-64
2023/01/10 00:44:45;;;;;;;1.73;1.10;;;8.00;81.00;;;;;;5110805;28;20562;-64
2023/01/10 00:47:11;;;;;;;3.08;1.52;;;8.00;81.00;;;;;;5109454;28;20031;-65
2023/01/10 00:49:37;;;;;;;4.00;1.55;;;8.00;80.90;;;;;;5110622;28;20470;-58
2023/01/10 00:52:04;;;;;;;3.63;1.35;;;8.00;81.00;;;;;;5091779;28;20019;-59
2023/01/10 00:54:29;;;;;;;4.05;1.45;;;8.00;80.90;;;;;;5110368;28;20232;-65
2023/01/10 00:56:55;;;;;;;7.47;2.17;;;7.90;80.90;;;;;;5096468;28;20024;-60
2023/01/10 00:59:21;;;;;;;2.05;1.20;;;7.90;81.00;;;;;;5087901;28;20021;-63
2023/01/10 01:01:47;;;;;;;5.95;1.48;;;7.90;81.10;;;;;;5084904;28;20073;-63
2023/01/10 01:04:13;;;;;;;3.53;1.33;;;7.90;81.10;;;;;;5090452;28;20470;-64
2023/01/10 01:06:39;;;;;;;4.63;1.52;;;7.90;81.10;;;;;;5069826;28;20130;-63
2023/01/10 01:09:05;;;;;;;6.28;1.23;;;7.90;81.10;;;;;;5081523;28;20502;-64
2023/01/10 01:11:30;;;;;;;2.15;1.60;;;8.00;81.10;;;;;;5090679;28;20020;-58
2023/01/10 01:13:56;;;;;;;1.75;1.20;;;7.90;81.00;;;;;;5091166;28;20032;-58
2023/01/10 01:16:22;;;;;;;0.70;0.70;;;7.90;81.10;;;;;;5088756;28;20020;-59
2023/01/10 01:18:47;;;;;;;3.10;0.88;;;7.90;81.20;;;;;;5090715;28;20544;-59
2023/01/10 01:21:13;;;;;;;10.45;1.52;;;7.90;81.10;;;;;;5090717;28;20023;-60
2023/01/10 01:23:39;;;;;;;2.78;1.10;;;7.90;81.10;;;;;;5089789;28;20036;-58
2023/01/10 01:26:05;;;;;;;6.07;1.85;;;7.90;81.10;;;;;;5089719;28;20058;-60
2023/01/10 01:28:31;;;;;;;4.20;1.23;;;7.90;81.10;;;;;;5084347;28;20028;-59
2023/01/10 01:30:57;;;;;;;5.10;1.67;;;7.90;81.10;;;;;;5090553;28;20017;-59
2023/01/10 01:33:22;;;;;;;4.35;1.05;;;7.80;81.20;;;;;;5089976;28;20020;-59
2023/01/10 01:35:49;;;;;;;7.72;1.80;;;7.80;81.10;;;;;;5072714;28;20024;-59
2023/01/10 01:38:16;;;;;;;3.00;1.13;;;7.80;81.20;;;;;;5089880;28;20028;-59
2023/01/10 01:40:42;;;;;;;1.00;0.75;;;7.80;81.20;;;;;;5090152;28;20028;-64
2023/01/10 01:43:21;;;;;;;2.67;1.08;;;7.80;81.30;;;;;;5090362;28;20103;-59
2023/01/10 01:45:46;;;;;;;3.53;0.55;;;7.80;81.20;;;;;;5096145;28;20857;-59
2023/01/10 01:48:41;;;;;;;3.88;1.70;;;7.80;81.20;;;;;;5096178;28;20029;-60
2023/01/10 01:51:13;;;;;;;3.20;1.08;;;7.90;81.10;;;;;;5081317;28;20021;-64
2023/01/10 01:53:42;;;;;;;2.38;1.13;;;7.90;81.10;;;;;;5090218;28;20017;-64
2023/01/10 01:56:14;;;;;;;2.72;0.93;;;7.80;81.00;;;;;;5089371;28;20112;-64
2023/01/10 01:58:59;;;;;;;3.03;1.45;;;7.80;81.10;;;;;;5090422;28;20573;-58
2023/01/10 02:01:27;;;;;;;2.50;1.40;;;7.80;81.10;;;;;;5089965;28;20486;-58
2023/01/10 02:03:59;;;;;;;2.47;1.35;;;7.80;81.20;;;;;;5097618;28;20031;-59
2023/01/10 02:06:25;;;;;;;3.88;1.10;;;7.70;81.20;;;;;;5094110;28;20481;-63
2023/01/10 02:09:02;;;;;;;3.20;1.23;;;7.70;81.20;;;;;;5095441;28;20112;-64
2023/01/10 02:11:29;;;;;;;7.13;1.40;;;7.70;81.30;;;;;;5092803;28;20395;-65
2023/01/10 02:13:56;;;;;;;6.75;1.00;;;7.70;81.40;;;;;;5089153;28;20048;-63
2023/01/10 02:16:22;;;;;;;2.85;1.27;;;7.70;81.40;;;;;;5083082;28;20034;-64
2023/01/10 02:18:48;;;;;;;6.82;1.45;;;7.60;81.40;;;;;;5109279;28;20031;-64
2023/01/10 02:21:56;;;;;;;6.30;1.42;;;7.60;81.50;;;;;;5108784;28;20031;-64
2023/01/10 02:24:39;;;;;;;4.07;1.65;;;7.60;81.40;;;;;;5092588;28;20073;-64
2023/01/10 02:27:19;;;;;;;1.73;1.15;;;7.60;81.50;;;;;;5094250;28;20028;-64
2023/01/10 02:30:15;;;;;;;6.07;1.45;;;7.60;81.60;;;;;;5084573;28;20419;-64
2023/01/10 02:33:04;;;;;;;1.67;1.00;;;7.60;81.60;;;;;;5108066;28;20023;-65
2023/01/10 02:35:53;;;;;;;4.22;1.98;;;7.60;81.80;;;;;;5101377;28;20502;-65
2023/01/10 02:38:37;;;;;;;1.25;0.90;;;7.60;82.00;;;;;;5103284;28;20036;-65
2023/01/10 02:41:15;;;;;;;2.47;1.02;;;7.60;82.00;;;;;;5105968;28;20020;-65
2023/01/10 02:43:49;;;;;;;3.78;1.63;;;7.60;81.90;;;;;;5108558;28;20038;-64
2023/01/10 02:46:23;;;;;;;5.40;1.58;;;7.60;81.80;;;;;;5108338;28;20031;-59
2023/01/10 02:48:51;;;;;;;5.07;1.70;;;7.70;81.90;;;;;;5094839;28;20024;-64
2023/01/10 02:51:18;;;;;;;2.15;1.30;;;7.70;81.90;;;;;;5109122;28;20122;-59
2023/01/10 02:53:52;;;;;;;2.97;1.35;;;7.70;81.80;;;;;;5108323;28;20019;-65
2023/01/10 02:56:33;;;;;;;2.33;0.88;;;7.80;82.10;;;;;;5107763;28;20035;-65
2023/01/10 02:59:10;;;;;;;1.90;1.45;;;7.70;82.00;;;;;;5082005;28;20031;-60
2023/01/10 03:01:51;;;;;;;5.40;1.77;;;7.70;82.30;;;;;;5102318;28;20034;-60
2023/01/10 03:04:28;;;;;;;2.97;1.20;;;7.70;82.40;;;;;;5088723;28;20031;-59
2023/01/10 03:07:03;;;;;;;8.13;1.77;;;7.70;82.50;;;;;;5085087;28;20372;-59
2023/01/10 03:09:34;;;;;;;6.30;1.58;;;7.70;82.60;;;;;;5088947;28;20391;-59
2023/01/10 03:12:15;;;;;;;5.20;1.67;;;7.70;82.80;;;;;;5101066;28;20034;-60
2023/01/10 03:14:42;;;;;;;3.35;1.15;;;7.80;82.80;;;;;;5104003;28;20387;-60
2023/01/10 03:17:11;;;;;;;1.35;0.93;;;7.70;82.80;;;;;;5108817;28;20099;-60
2023/01/10 03:19:50;;;;;;;1.10;0.70;;;7.80;82.80;;;;;;5091504;28;20027;-60
2023/01/10 03:22:16;;;;;;;2.35;1.20;;;7.80;82.70;;;;;;5092797;28;20016;-58
2023/01/10 03:24:47;;;;;;;2.65;0.77;;;7.80;82.70;;;;;;5093190;28;20759;-59
2023/01/10 03:27:33;;;;;;;2.35;1.25;;;7.80;82.70;;;;;;5087143;28;20016;-58
2023/01/10 03:30:26;;;;;;;3.60;1.35;;;7.80;82.80;;;;;;5080816;28;20050;-59
2023/01/10 03:32:54;;;;;;;5.30;1.83;;;7.80;82.90;;;;;;5091710;28;20095;-59
2023/01/10 03:35:27;;;;;;;2.50;1.17;;;7.70;83.20;;;;;;5074809;28;20104;-59
2023/01/10 03:37:58;;;;;;;5.40;1.60;;;7.70;83.30;;;;;;5092322;28;20016;-58
2023/01/10 03:40:36;;;;;;;8.52;1.50;;;7.80;83.40;;;;;;5074462;28;20032;-61
2023/01/10 03:46:03;;;;;;;5.47;1.65;;;7.80;83.60;;;;;;5091882;28;20497;-60
2023/01/10 03:48:32;;;;;;;4.70;1.77;;;7.80;83.70;;;;;;5091614;28;20020;-60
2023/01/10 03:51:01;;;;;;;3.42;1.13;;;7.70;83.90;;;;;;5092836;28;20016;-59
2023/01/10 03:53:27;;;;;;;2.25;1.23;;;7.70;84.40;;;;;;5092674;28;20475;-60
2023/01/10 03:55:53;;;;;;;4.10;1.08;;;7.70;83.90;;;;;;5091945;28;20218;-58
2023/01/10 03:58:20;;;;;;;2.53;1.55;;;7.70;84.00;;;;;;5074413;28;20035;-64
2023/01/10 04:00:47;;;;;;;5.53;1.77;;;7.70;84.00;;;;;;5092415;28;20035;-64
2023/01/10 04:03:13;;;;;;;4.38;1.60;;;7.70;84.00;;;;;;5093764;28;20439;-59
2023/01/10 04:05:39;;;;;;;6.88;1.85;;;7.70;84.00;;;;;;5103329;28;20029;-59
2023/01/10 04:08:07;;;;;;;6.75;2.15;;;7.70;84.00;;;;;;5079462;28;20048;-59
2023/01/10 04:10:33;;;;;;;3.15;1.23;;;7.70;84.00;;;;;;5101232;28;20032;-65
2023/01/10 04:13:00;;;;;;;1.73;1.25;;;7.70;84.10;;;;;;5108294;28;20079;-64
2023/01/10 04:15:26;;;;;;;4.97;1.45;;;7.70;84.00;;;;;;5091626;28;20042;-64
2023/01/10 04:17:52;;;;;;;4.88;1.10;;;7.80;84.00;;;;;;5091679;28;20382;-60
2023/01/10 04:20:18;;;;;;;4.85;1.65;;;7.80;83.90;;;;;;5092133;28;20115;-60
2023/01/10 04:22:48;;;;;;;6.30;1.50;;;7.80;83.90;;;;;;5088632;28;20046;-60
2023/01/10 04:25:14;;;;;;;3.55;1.45;;;7.80;83.90;;;;;;5091288;28;20036;-59
2023/01/10 04:27:40;;;;;;;5.00;1.45;;;7.80;84.10;;;;;;5084978;28;20024;-60
2023/01/10 04:30:07;;;;;;;4.22;2.38;;;7.80;84.10;;;;;;5091572;28;20033;-59
2023/01/10 04:32:32;;;;;;;6.20;1.75;;;7.80;84.00;;;;;;5090183;28;20099;-60
2023/01/10 04:34:58;;;;;;;2.53;0.98;;;7.80;84.00;;;;;;5091504;28;20209;-64
2023/01/10 04:37:24;;;;;;;7.45;2.55;;;7.80;84.00;;;;;;5101120;28;20031;-65
2023/01/10 04:39:49;;;;;;;8.73;1.75;;;7.80;84.10;;;;;;5087358;28;20041;-64
2023/01/10 04:42:16;;;;;;;9.13;2.05;;;7.80;84.20;;;;;;5104754;28;20065;-64
2023/01/10 04:44:42;;;;;;;9.70;1.83;;;7.80;84.40;;;;;;5110896;28;20027;-64
2023/01/10 04:47:07;;;;;;;3.00;1.65;;;7.70;84.60;;;;;;5107974;28;20433;-64
2023/01/10 04:49:33;;;;;;;3.00;1.38;;;7.70;84.60;;;;;;5072741;28;20087;-64
2023/01/10 04:51:59;;;;;;;4.78;1.83;;;7.70;84.70;;;;;;5075739;28;20427;-64
2023/01/10 04:54:24;;;;;;;4.95;2.08;;;7.70;84.70;;;;;;5111052;28;20184;-64
2023/01/10 04:56:50;;;;;;;8.07;1.98;;;7.70;84.70;;;;;;5103121;28;20031;-64
2023/01/10 04:59:16;;;;;;;8.13;2.40;;;7.70;84.80;;;;;;5105743;28;20051;-64
2023/01/10 05:01:42;;;;;;;3.90;2.13;;;7.70;84.90;;;;;;5088302;28;20037;-64
2023/01/10 05:04:08;;;;;;;6.65;1.52;;;7.70;84.90;;;;;;5060973;28;20059;-59
2023/01/10 05:06:35;;;;;;;5.00;1.67;;;7.70;84.90;;;;;;5092773;28;20399;-59
2023/01/10 05:09:02;;;;;;;7.15;2.70;;;7.70;84.80;;;;;;5092727;28;20075;-59
2023/01/10 05:11:27;;;;;;;2.30;1.60;;;7.70;84.90;;;;;;5093093;28;20216;-59
2023/01/10 05:13:53;;;;;;;3.75;1.65;;;7.70;84.80;;;;;;5092481;28;20028;-59
2023/01/10 05:16:19;;;;;;;8.13;2.92;;;7.70;84.80;;;;;;5077037;28;20465;-60
2023/01/10 05:18:44;;;;;;;7.25;2.08;;;7.70;84.90;;;;;;5092986;28;20032;-64
2023/01/10 05:21:12;;;;;;;3.05;1.60;;;7.80;84.90;;;;;;5095427;28;20051;-64
2023/01/10 05:23:39;;;;;;;7.10;1.98;;;7.80;84.80;;;;;;5092691;28;20020;-60
2023/01/10 05:26:08;;;;;;;8.10;2.33;;;7.80;84.80;;;;;;5095834;28;20477;-59
2023/01/10 05:28:33;;;;;;;6.50;2.15;;;7.80;84.70;;;;;;5090637;28;20032;-59
2023/01/10 05:30:59;;;;;;;2.65;1.92;;;7.80;84.60;;;;;;5099261;28;20028;-64
2023/01/10 05:33:25;;;;;;;2.85;1.95;;;7.80;84.50;;;;;;5104532;28;20064;-64
2023/01/10 05:35:51;;;;;;;4.57;1.52;;;7.90;84.40;;;;;;5099595;28;20081;-64
2023/01/10 05:38:16;;;;;;;8.13;2.35;;;7.90;84.40;;;;;;5084914;28;20024;-64
2023/01/10 05:40:42;;;;;;;4.00;1.77;;;7.90;84.40;;;;;;5105659;28;20034;-59
2023/01/10 05:43:08;;;;;;;3.33;1.48;;;7.90;84.40;;;;;;5105755;28;20084;-60
2023/01/10 05:45:33;;;;;;;5.90;2.20;;;7.90;84.40;;;;;;5087984;28;20016;-59
2023/01/10 05:47:59;;;;;;;7.80;2.47;;;7.90;84.40;;;;;;5085667;28;20534;-64
2023/01/10 05:50:25;;;;;;;3.22;1.55;;;7.90;84.50;;;;;;5086938;28;20028;-64
2023/01/10 05:52:50;;;;;;;3.35;1.67;;;7.90;84.30;;;;;;5070269;28;20024;-64
2023/01/10 05:55:16;;;;;;;5.57;2.17;;;7.90;84.30;;;;;;5087144;28;20314;-64
2023/01/10 05:57:42;;;;;;;2.28;1.63;;;7.90;84.30;;;;;;5088495;28;20035;-64
2023/01/10 06:00:08;;;;;;;10.50;1.90;;;7.90;84.30;;;;;;5089877;28;20058;-64
2023/01/10 06:02:34;;;;;;;10.05;2.92;;;7.90;84.20;;;;;;5088111;28;20051;-64
2023/01/10 06:05:00;;;;;;;6.32;2.13;;;7.90;84.30;;;;;;5066284;28;20036;-64
2023/01/10 06:07:25;;;;;;;7.13;2.40;;;7.90;84.40;;;;;;5082632;28;20051;-61
2023/01/10 06:09:51;;;;;;;9.38;2.60;;;7.90;84.40;;;;;;5061567;28;20097;-62
2023/01/10 06:12:18;;;;;;;7.93;2.63;;;7.80;84.30;;;;;;5089647;28;20040;-63
2023/01/10 06:14:44;;;;;;;6.63;2.75;;;7.90;84.30;;;;;;5089089;28;20030;-62
2023/01/10 06:17:10;;;;;;;15.38;2.58;;;7.90;84.30;;;;;;5078094;28;20032;-60
2023/01/10 06:19:36;;;;;;;2.60;1.75;;;7.90;84.30;;;;;;5053918;28;20028;-60
2023/01/10 06:22:04;;;;;;;10.65;2.53;;;7.90;84.20;;;;;;5080717;28;20581;-58
2023/01/10 06:24:37;;;;;;;6.20;2.10;;;8.00;84.20;;;;;;5086048;28;20020;-58
2023/01/10 06:27:02;;;;;;;6.65;2.30;;;8.00;84.10;;;;;;5082547;28;20024;-58
2023/01/10 06:29:28;;;;;;;8.90;1.98;;;8.00;84.00;;;;;;5089760;28;20050;-61
2023/01/10 06:31:54;;;;;;;5.88;1.92;;;8.00;83.90;;;;;;5089770;28;20023;-58
2023/01/10 06:34:19;;;;;;;10.52;2.22;;;8.00;83.90;;;;;;5088169;28;20024;-61
2023/01/10 06:36:45;;;;;;;3.47;2.08;;;7.90;83.80;;;;;;5089485;28;20035;-58
2023/01/10 06:39:11;;;;;;;9.00;2.53;;;7.90;83.90;;;;;;5090681;28;20465;-59
2023/01/10 06:41:36;;;;;;;9.90;2.53;;;7.90;83.90;;;;;;5081681;28;20032;-58
2023/01/10 06:44:02;;;;;;;7.63;2.17;;;7.90;83.80;;;;;;5069233;28;20032;-59
2023/01/10 06:46:28;;;;;;;3.47;1.90;;;7.90;83.80;;;;;;5088589;28;20479;-60
2023/01/10 06:48:53;;;;;;;4.80;2.38;;;7.90;83.80;;;;;;5071307;28;20437;-59
2023/01/10 06:51:19;;;;;;;5.97;2.13;;;7.90;83.80;;;;;;5089684;28;20027;-60
2023/01/10 06:53:45;;;;;;;3.65;2.25;;;7.90;83.70;;;;;;5090765;28;20052;-59
2023/01/10 06:56:11;;;;;;;7.53;2.33;;;7.90;83.70;;;;;;5090218;28;20398;-62
2023/01/10 06:58:40;;;;;;;7.47;2.70;;;7.90;83.80;;;;;;5095230;28;20024;-60
2023/01/10 07:01:11;;;;;;;4.90;2.47;;;7.90;83.80;;;;;;5094259;28;20097;-58
2023/01/10 07:03:39;;;;;;;7.20;2.00;;;7.90;83.70;;;;;;5076786;28;20093;-59
2023/01/10 07:06:08;;;;;;;3.22;1.38;;;7.90;83.60;;;;;;5105382;28;20479;-60
2023/01/10 07:08:39;;;;;;;6.65;2.25;;;8.00;83.60;;;;;;5100101;28;20521;-58
2023/01/10 07:11:05;;;;;;;3.20;2.05;;;8.00;83.50;;;;;;5098549;28;20111;-59
2023/01/10 07:13:31;;;;;;;3.97;2.05;;;8.00;83.50;;;;;;5084211;28;20035;-62
2023/01/10 07:16:04;;;;;;;6.32;1.98;;;8.00;83.40;;;;;;5099994;28;20483;-59
2023/01/10 07:18:31;;;;;;;8.18;2.67;;;8.00;83.40;;;;;;5100864;28;20032;-63
2023/01/10 07:20:56;;;;;;;8.00;1.75;;;8.00;83.40;;;;;;5097769;28;20131;-62
2023/01/10 07:23:23;;;;;;;12.48;2.70;;;8.00;83.30;;;;;;5092863;28;20107;-63
2023/01/10 07:25:48;;;;;;;12.48;2.00;;;8.00;83.20;;;;;;5092934;28;20024;-58
2023/01/10 07:28:14;;;;;;;12.50;2.55;;;8.00;83.30;;;;;;5092267;28;20099;-58
2023/01/10 07:30:40;;;;;;;4.53;1.88;;;8.10;83.20;;;;;;5091461;28;20040;-59
2023/01/10 07:33:06;;;;;;;9.85;2.88;;;8.00;83.10;;;;;;5090919;28;20032;-59
2023/01/10 07:35:32;;;;;;;6.38;3.00;;;8.00;83.20;;;;;;5077651;28;20024;-58
2023/01/10 07:37:58;;;;;;;7.00;2.10;;;8.00;83.20;;;;;;5068351;28;20504;-59
2023/01/10 07:40:25;;;;;;;4.72;1.80;;;8.00;83.20;;;;;;5085992;28;20024;-62
2023/01/10 07:42:58;;;;;;;5.50;3.03;;;8.10;83.10;;;;;;5072765;28;20059;-63
2023/01/10 07:45:25;;;;;;;9.52;2.28;;;8.10;83.00;;;;;;5086183;28;20035;-63
2023/01/10 07:47:59;;;;;;;8.10;2.78;;;8.10;83.10;;;;;;5084812;28;20024;-60
2023/01/10 07:50:27;;;;;;;5.28;2.30;;;8.10;83.10;;;;;;5089009;28;20483;-58
2023/01/10 07:52:52;;;;;;;14.15;3.10;;;8.10;83.00;;;;;;5090874;28;20470;-59
2023/01/10 07:55:18;;;;;;;4.32;2.25;;;8.10;83.10;;;;;;5096261;28;20048;-59
2023/01/10 07:57:44;;;;;;;7.18;3.15;;;8.00;83.70;;;;;;5111310;27;20036;-60
2023/01/10 08:00:10;;;;;;;6.72;2.20;;;8.10;83.10;;;;;;5098058;28;20112;-63
2023/01/10 08:02:36;;;;;;;6.95;1.73;;;8.00;83.00;;;;;;5091733;28;20038;-63
2023/01/10 08:05:02;;;;;;;5.90;1.88;;;8.00;83.10;;;;;;5089389;28;20262;-59
2023/01/10 08:07:29;;;;;;;10.00;2.33;;;8.10;83.10;;;;;;5088947;28;20048;-63
2023/01/10 08:09:54;;;;;;;7.10;2.22;;;8.10;83.00;;;;;;5089030;28;20055;-63
2023/01/10 08:12:23;;;;;;;15.13;3.15;;;8.10;82.90;;;;;;5090242;28;20055;-63
2023/01/10 08:14:49;;;;;;;3.65;1.90;;;8.00;82.80;;;;;;5074123;28;20029;-59
2023/01/10 08:17:15;;;;;;;6.35;2.13;;;8.10;82.80;;;;;;5090012;28;20093;-63
2023/01/10 08:19:40;;;;;;;11.00;2.28;;;8.10;82.70;;;;;;5091274;28;20032;-64
2023/01/10 08:22:06;;;;;;;11.95;2.95;;;8.10;82.70;;;;;;5090535;28;20059;-65
2023/01/10 08:24:32;;;;;;;11.77;3.30;;;8.10;82.60;;;;;;5090810;28;20020;-59
2023/01/10 08:26:58;;;;;;;5.50;2.25;;;8.10;82.60;;;;;;5068080;28;20082;-64
2023/01/10 08:29:23;;;;;;;5.90;2.40;;;8.00;82.50;;;;;;5091261;28;20034;-59
2023/01/10 08:31:49;;;;;;;7.75;2.17;;;8.10;83.10;;;;;;5090521;28;20110;-64
2023/01/10 08:34:15;;;;;;;9.95;2.95;;;8.10;82.50;;;;;;5066892;28;20112;-64
2023/01/10 08:36:41;;;;;;;8.23;2.42;;;8.10;82.30;;;;;;5088883;28;20893;-64
2023/01/10 08:39:07;;;;;;;10.25;2.22;;;8.10;82.30;;;;;;5090659;28;20498;-64
2023/01/10 08:41:33;;;;;;;8.30;2.78;;;8.10;82.30;;;;;;5090542;28;20039;-59
2023/01/10 08:43:59;;;;;;;15.63;2.60;;;8.10;82.20;;;;;;5090514;28;20443;-64
2023/01/10 08:46:25;;;;;;;11.13;2.75;;;8.10;82.10;;;;;;5071294;28;20063;-64
2023/01/10 08:48:51;;;;;;;9.00;3.15;;;8.20;81.90;;;;;;5091435;28;20056;-59
2023/01/10 08:51:17;;;;;;;7.47;2.42;;;8.10;81.70;;;;;;5093410;28;21090;-59
2023/01/10 08:53:43;;;;;;;6.05;2.75;;;8.20;81.80;;;;;;5092687;28;20048;-59
2023/01/10 08:56:09;;;;;;;6.15;1.92;;;8.20;81.80;;;;;;5082941;28;20064;-59
2023/01/10 08:58:35;;;;;;;7.68;2.80;;;8.30;82.10;;;;;;5083737;28;20048;-59
2023/01/10 09:01:08;;;;;;;12.13;2.13;;;8.30;81.70;;;;;;5067942;28;20518;-60
2023/01/10 09:03:34;;;;;;;;;;;8.30;81.50;;;;;;5089290;28;20032;-64
2023/01/10 09:06:00;;;;;;;3.83;1.83;;;8.40;81.40;;;;;;5092445;28;19919;-64
2023/01/10 09:08:26;;;;;;;8.00;2.45;;;8.40;81.30;;;;;;5094244;28;20445;-59
2023/01/10 09:10:52;;;;;;;4.75;1.52;;;8.40;81.20;;;;;;5075553;28;20027;-59
2023/01/10 09:13:17;;;;;;;5.95;2.28;;;8.40;81.10;;;;;;5070624;28;20020;-58
2023/01/10 09:15:43;;;;;;;6.18;2.20;;;8.40;81.20;;;;;;5087431;28;20109;-59
2023/01/10 09:18:11;;;;;;;5.07;2.20;;;8.30;81.00;;;;;;5093863;28;20122;-64
2023/01/10 09:20:39;;;;;;;16.77;1.98;;;8.30;80.90;;;;;;5074186;28;20441;-59
2023/01/10 09:23:07;;;;;;;10.25;2.33;;;8.20;81.00;;;;;;5087145;28;20016;-59
2023/01/10 09:25:33;;;;;;;3.95;1.80;;;8.20;81.10;;;;;;5093848;28;20060;-59
2023/01/10 09:28:00;;;;;;;11.68;2.65;;;8.20;81.20;;;;;;5086482;28;20038;-59
2023/01/10 09:30:27;;;;;;;6.53;2.00;;;8.30;81.10;;;;;;5084736;28;20036;-65
2023/01/10 09:32:54;;;;;;;5.80;1.92;;;8.30;81.20;;;;;;5085879;28;20020;-59
2023/01/10 09:35:21;;;;;;;7.15;2.58;;;8.30;81.00;;;;;;5071003;28;20040;-59
2023/01/10 09:37:46;;;;;;;6.00;1.60;;;8.40;80.90;;;;;;5088344;28;20055;-60
2023/01/10 09:40:19;;;;;;;8.80;2.05;;;8.40;81.00;;;;;;5089701;28;20079;-60
2023/01/10 09:42:58;;;;;;;3.13;2.00;;;8.40;80.90;;;;;;5087205;28;20020;-60
2023/01/10 09:45:29;;;;;;;8.00;2.25;;;8.40;80.80;;;;;;5088592;28;20043;-60
2023/01/10 09:48:04;;;;;;;3.65;1.45;;;8.50;80.80;;;;;;5071145;28;20025;-60
2023/01/10 09:50:58;;;;;;;2.65;1.52;;;8.40;80.70;;;;;;5091012;28;20309;-60
2023/01/10 09:53:29;;;;;;;17.05;2.72;;;8.40;80.40;;;;;;5083821;28;20056;-64
2023/01/10 09:55:58;;;;;;;5.80;2.72;;;8.30;80.60;;;;;;5072642;28;20024;-64
2023/01/10 09:58:28;;;;;;;13.82;2.88;;;8.40;80.60;;;;;;5085604;28;20031;-60
2023/01/10 10:01:27;;;;;;;2.33;1.38;;;8.40;80.70;;;;;;5094985;28;20435;-60
2023/01/10 10:03:58;;;;;;;3.22;1.70;;;8.40;80.70;;;;;;5048127;28;20411;-64
2023/01/10 10:06:24;;;;;;;4.57;1.88;;;8.40;80.60;;;;;;5094354;28;20400;-64
2023/01/10 10:08:51;;;;;;;7.20;2.65;;;8.40;80.50;;;;;;5097357;28;20056;-64
2023/01/10 10:11:25;;;;;;;8.95;1.65;;;8.50;80.40;;;;;;5091785;28;20020;-64
2023/01/10 10:14:05;;;;;;;7.03;2.30;;;8.50;80.20;;;;;;5081813;28;20091;-60
2023/01/10 10:16:57;;;;;;;6.45;2.33;;;8.50;80.00;;;;;;5084812;28;20031;-60
2023/01/10 10:19:51;;;;;;;8.98;2.05;;;8.50;80.00;;;;;;5085123;28;20099;-64
2023/01/10 10:22:55;;;;;;;9.98;1.65;;;8.50;79.80;;;;;;5084892;28;20040;-62
2023/01/10 10:25:35;;;;;;;8.65;2.92;;;8.50;79.90;;;;;;5078537;28;20047;-62
2023/01/10 10:28:16;;;;;;;4.55;2.35;;;8.50;79.90;;;;;;5085507;28;20020;-59
2023/01/10 10:30:55;;;;;;;11.75;2.55;;;8.40;79.40;;;;;;5083765;28;20043;-63
2023/01/10 10:33:39;;;;;;;10.40;2.13;;;8.30;79.70;;;;;;5083246;28;20024;-62
2023/01/10 10:36:17;;;;;;;8.40;1.88;;;8.30;79.60;;;;;;5085104;28;20042;-62
2023/01/10 10:38:45;;;;;;;7.07;2.33;;;8.30;79.60;;;;;;5081859;28;20089;-62
2023/01/10 10:41:35;;;;;;;9.10;2.83;;;8.30;79.40;;;;;;5087350;28;20052;-62
2023/01/10 10:44:18;;;;;;;5.32;2.72;;;8.40;79.20;;;;;;5084565;28;20052;-62
2023/01/10 10:46:44;;;;;;;13.98;3.05;;;8.40;79.30;;;;;;5089336;28;20031;-59
2023/01/10 10:49:35;;;;;;;3.47;1.58;;;8.50;79.30;;;;;;5084534;28;20039;-65
2023/01/10 10:52:04;;;;;;;12.85;2.13;;;8.50;79.20;;;;;;5076052;28;20048;-59
2023/01/10 10:54:34;;;;;;;12.40;2.70;;;8.50;78.90;;;;;;5086679;28;20067;-60
2023/01/10 10:57:00;;;;;;;8.32;1.65;;;8.60;78.90;;;;;;5087050;28;20036;-60
2023/01/10 10:59:25;;;;;;;5.15;2.38;;;8.60;78.80;;;;;;5082868;28;20042;-60
2023/01/10 11:01:51;;;;;;;5.18;2.17;;;8.60;78.80;;;;;;5087669;28;20020;-59
2023/01/10 11:04:22;;;;;;;6.53;2.13;;;8.60;78.80;;;;;;5086535;28;20036;-60
2023/01/10 11:06:48;;;;;;;4.95;2.42;;;8.60;78.60;;;;;;5086259;28;20034;-64
2023/01/10 11:09:22;;;;;;;8.25;2.17;;;8.70;78.80;;;;;;5087528;28;20130;-64
2023/01/10 11:11:50;;;;;;;2.67;1.70;;;8.70;78.70;;;;;;5086465;28;20470;-64
2023/01/10 11:14:44;;;;;;;5.75;1.67;;;8.70;78.60;;;;;;5088028;28;20036;-60
2023/01/10 11:17:29;;;;;;;6.22;2.08;;;8.70;78.40;;;;;;5087125;28;20107;-60
2023/01/10 11:19:56;;;;;;;6.45;2.30;;;8.70;78.60;;;;;;5085752;28;20028;-59
2023/01/10 11:22:23;;;;;;;10.65;2.53;;;8.70;78.60;;;;;;5088267;28;20035;-60
2023/01/10 11:25:01;;;;;;;8.10;2.40;;;8.70;78.50;;;;;;5089495;28;20109;-64
2023/01/10 11:27:32;;;;;;;7.72;1.60;;;8.70;78.60;;;;;;5087959;28;20103;-64
2023/01/10 11:30:05;;;;;;;5.80;1.63;;;8.70;78.70;;;;;;5089473;28;20028;-64
2023/01/10 11:32:34;;;;;;;8.30;2.50;;;8.70;78.50;;;;;;5070157;28;20020;-60
2023/01/10 11:35:05;;;;;;;9.35;1.50;;;8.60;78.50;;;;;;5086728;28;20497;-60
2023/01/10 11:37:34;;;;;;;3.70;1.57;;;8.70;78.60;;;;;;5087601;28;20128;-64
2023/01/10 11:40:17;;;;;;;15.77;2.10;;;8.70;78.50;;;;;;5087163;28;20127;-64
2023/01/10 11:42:43;;;;;;;4.45;1.77;;;8.70;78.30;;;;;;5072957;28;20454;-64
2023/01/10 11:45:18;;;;;;;4.25;2.03;;;8.70;78.40;;;;;;5091586;28;20570;-64
2023/01/10 11:47:54;;;;;;;6.05;2.28;;;8.70;78.40;;;;;;5093328;28;20043;-64
2023/01/10 11:50:24;;;;;;;4.03;1.98;;;8.70;78.40;;;;;;5096126;28;20023;-60
2023/01/10 11:52:50;;;;;;;4.93;2.13;;;8.70;78.40;;;;;;5075923;28;20040;-59
2023/01/10 11:55:22;;;;;;;8.95;2.00;;;8.70;78.30;;;;;;5099033;28;20046;-59
2023/01/10 11:58:05;;;;;;;5.30;2.23;;;8.70;78.30;;;;;;5092538;28;20118;-60
2023/01/10 12:00:47;;;;;;;6.13;2.35;;;8.70;78.30;;;;;;5092893;28;20062;-64
2023/01/10 12:03:20;;;;;;;9.23;2.42;;;8.70;78.40;;;;;;5090663;28;20383;-65
2023/01/10 12:05:51;;;;;;;4.93;2.15;;;8.80;78.40;;;;;;5086367;28;20035;-65
2023/01/10 12:08:29;;;;;;;3.43;1.43;;;8.80;78.40;;;;;;5097958;28;20050;-61
2023/01/10 12:11:06;;;;;;;9.05;2.45;;;8.80;78.30;;;;;;5095340;28;20107;-61
2023/01/10 12:13:48;;;;;;;5.68;1.65;;;8.90;78.40;;;;;;5091512;28;20030;-65
2023/01/10 12:16:15;;;;;;;7.82;1.45;;;8.90;78.20;;;;;;5091603;28;20032;-65
2023/01/10 12:18:41;;;;;;;7.00;2.08;;;8.90;78.10;;;;;;5084744;28;20457;-65
2023/01/10 12:21:08;;;;;;;4.90;2.45;;;8.90;78.10;;;;;;5092419;28;20158;-65
2023/01/10 12:23:40;;;;;;;4.75;1.90;;;8.90;78.20;;;;;;5091497;28;20503;-65
2023/01/10 12:26:07;;;;;;;5.38;1.92;;;9.00;78.40;;;;;;5091421;28;20026;-60
2023/01/10 12:28:35;;;;;;;3.47;1.48;;;9.00;78.10;;;;;;5074691;28;20074;-65
2023/01/10 12:31:04;;;;;;;4.63;2.05;;;9.00;78.00;;;;;;5090327;28;20379;-65
2023/01/10 12:33:40;;;;;;;4.93;1.83;;;9.00;78.00;;;;;;5086322;28;20066;-65
2023/01/10 12:36:19;;;;;;;3.50;1.75;;;9.00;78.30;;;;;;5084482;28;20035;-65
2023/01/10 12:39:05;;;;;;;8.77;2.10;;;9.00;78.10;;;;;;5089293;28;20383;-65
2023/01/10 12:44:46;;;;;;;2.33;1.27;;;8.90;78.20;;;;;;5089921;28;20197;-65
2023/01/10 12:47:20;;;;;;;4.97;1.50;;;8.90;78.20;;;;;;5091201;28;20028;-60
2023/01/10 12:49:58;;;;;;;3.28;1.83;;;9.00;78.30;;;;;;5091410;28;20111;-60
2023/01/10 12:52:51;;;;;;;8.27;1.90;;;9.00;78.20;;;;;;5088013;28;20024;-60
2023/01/10 12:55:19;;;;;;;4.75;2.72;;;9.00;78.20;;;;;;5091538;28;20406;-60
2023/01/10 12:57:59;;;;;;;4.47;1.60;;;9.00;78.20;;;;;;5089667;28;20032;-61
2023/01/10 13:00:41;;;;;;;4.20;1.50;;;9.10;78.30;;;;;;5108631;28;20471;-65
2023/01/10 13:03:14;;;;;;;5.57;2.08;;;9.10;78.30;;;;;;5094959;28;20065;-65
2023/01/10 13:05:40;;;;;;;3.58;1.85;;;9.10;78.90;;;;;;5109501;28;20082;-65
2023/01/10 13:08:11;;;;;;;3.58;1.83;;;9.10;78.30;;;;;;5099937;28;20054;-65
2023/01/10 13:10:41;;;;;;;15.77;2.92;;;9.10;78.40;;;;;;5074766;28;20094;-65
2023/01/10 13:13:34;;;;;;;5.10;2.70;;;9.10;78.60;;;;;;5098051;28;20016;-65
2023/01/10 13:16:28;;;;;;;5.35;1.73;;;9.10;78.50;;;;;;5078571;28;20497;-65
2023/01/10 13:19:20;;;;;;;5.63;1.50;;;9.00;78.50;;;;;;5093778;28;20551;-65
2023/01/10 13:21:46;;;;;;;2.88;1.35;;;9.00;78.40;;;;;;5062690;28;20046;-65